Time;durP1;ratioP1;P1;durP2;ratioP2;P2;SDS_P1;SDS_P2;PMS_P1;PMS_P2;Temp;Humidity;BMP_temperature;BMP_pressure;BME280_temperature;BME280_humidity;BME280_pressure;Samples;Min_cycle;Max_cycle;Signal;HPM_P1;HPM_P2
2022/03/08 00:00:26;;;;;;;14.13;3.95;;;22.60;99.90;;;;;;5015134;28;20521;-71
2022/03/08 00:02:54;;;;;;;11.43;2.40;;;22.50;99.90;;;;;;5014953;28;20033;-74
2022/03/08 00:05:22;;;;;;;12.40;2.35;;;22.50;99.90;;;;;;5014275;28;20018;-73
2022/03/08 00:07:50;;;;;;;14.73;2.58;;;22.50;99.90;;;;;;5014173;28;20018;-74
2022/03/08 00:10:18;;;;;;;11.35;3.65;;;22.40;99.90;;;;;;5014527;28;20033;-77
2022/03/08 00:12:47;;;;;;;12.77;3.83;;;22.40;99.90;;;;;;5014344;28;20630;-75
2022/03/08 00:15:24;;;;;;;12.02;3.17;;;22.30;99.90;;;;;;5014498;28;20109;-72
2022/03/08 00:17:53;;;;;;;6.93;2.97;;;22.30;99.90;;;;;;5012692;28;20029;-79
2022/03/08 00:20:20;;;;;;;8.82;2.47;;;22.30;99.90;;;;;;5014113;28;20030;-73
2022/03/08 00:22:48;;;;;;;9.18;2.30;;;22.20;99.90;;;;;;5014939;28;20363;-73
2022/03/08 00:25:16;;;;;;;11.73;2.80;;;22.20;99.90;;;;;;5013575;28;20157;-72
2022/03/08 00:27:45;;;;;;;9.05;2.22;;;22.10;99.90;;;;;;5014757;28;20084;-72
2022/03/08 00:30:15;;;;;;;11.80;3.42;;;22.10;99.90;;;;;;5013218;28;20417;-74
2022/03/08 00:32:42;;;;;;;12.35;3.70;;;22.10;99.90;;;;;;5014762;28;20032;-73
2022/03/08 00:35:10;;;;;;;14.43;3.80;;;22.10;99.90;;;;;;5013038;28;20026;-70
2022/03/08 00:37:38;;;;;;;11.30;2.67;;;22.00;99.90;;;;;;5014534;28;20025;-73
2022/03/08 00:40:08;;;;;;;9.57;2.67;;;22.00;99.90;;;;;;5014121;28;20058;-72
2022/03/08 00:42:35;;;;;;;9.30;2.60;;;22.00;99.90;;;;;;5014207;28;20028;-73
2022/03/08 00:45:03;;;;;;;12.93;1.77;;;22.00;99.90;;;;;;5014462;28;20438;-73
2022/03/08 00:47:30;;;;;;;10.05;2.42;;;22.00;99.90;;;;;;5014195;28;20021;-73
2022/03/08 00:49:58;;;;;;;13.32;2.83;;;22.00;99.90;;;;;;5014305;28;20026;-75
2022/03/08 00:52:25;;;;;;;8.73;1.58;;;22.00;99.90;;;;;;5014529;28;20068;-71
2022/03/08 00:54:54;;;;;;;7.32;1.80;;;22.00;99.90;;;;;;5014291;28;20026;-73
2022/03/08 00:57:21;;;;;;;12.27;2.95;;;22.00;99.90;;;;;;5013648;28;20029;-71
2022/03/08 00:59:48;;;;;;;7.93;2.33;;;22.00;99.90;;;;;;5014352;28;20026;-72
2022/03/08 01:02:16;;;;;;;11.23;2.85;;;22.00;99.90;;;;;;5014104;28;20113;-73
2022/03/08 01:04:43;;;;;;;6.68;2.45;;;22.00;99.90;;;;;;5014470;28;20080;-70
2022/03/08 01:07:10;;;;;;;10.35;2.38;;;22.00;99.90;;;;;;5014211;28;20116;-70
2022/03/08 01:09:38;;;;;;;6.03;2.67;;;22.00;99.90;;;;;;5013630;28;20459;-71
2022/03/08 01:12:05;;;;;;;5.72;1.90;;;22.00;99.90;;;;;;5013512;28;20049;-74
2022/03/08 01:14:34;;;;;;;8.73;1.98;;;22.10;99.90;;;;;;5014339;28;20034;-70
2022/03/08 01:17:01;;;;;;;8.82;2.38;;;22.00;99.90;;;;;;5013913;28;20443;-72
2022/03/08 01:19:28;;;;;;;9.45;2.75;;;22.00;99.90;;;;;;5014093;28;20116;-74
2022/03/08 01:21:55;;;;;;;5.93;3.17;;;22.00;99.90;;;;;;5013750;28;20018;-72
2022/03/08 01:24:23;;;;;;;8.50;3.28;;;22.10;99.90;;;;;;5013091;28;20097;-74
2022/03/08 01:26:50;;;;;;;8.52;3.40;;;22.00;99.90;;;;;;5013583;28;20026;-73
2022/03/08 01:29:18;;;;;;;5.28;1.95;;;22.00;99.90;;;;;;5013294;28;20057;-74
2022/03/08 01:31:46;;;;;;;8.38;2.30;;;22.00;99.90;;;;;;5013508;28;20018;-72
2022/03/08 01:34:13;;;;;;;7.07;1.67;;;21.90;99.90;;;;;;5013409;28;20070;-70
2022/03/08 01:36:41;;;;;;;14.55;3.58;;;22.00;99.90;;;;;;5013108;28;20030;-73
2022/03/08 01:39:08;;;;;;;6.28;2.03;;;21.90;99.90;;;;;;5011507;28;20076;-72
2022/03/08 01:41:36;;;;;;;10.02;2.83;;;22.00;99.90;;;;;;5013091;28;20022;-73
2022/03/08 01:44:04;;;;;;;10.70;3.75;;;22.00;99.90;;;;;;5013515;28;20036;-77
2022/03/08 01:46:31;;;;;;;13.95;5.65;;;21.90;99.90;;;;;;5013337;28;20032;-72
2022/03/08 01:48:58;;;;;;;10.30;2.70;;;21.90;99.90;;;;;;5013619;28;20166;-73
2022/03/08 01:51:26;;;;;;;9.52;3.35;;;21.90;99.90;;;;;;5012902;28;20482;-74
2022/03/08 01:53:53;;;;;;;6.90;1.85;;;21.80;99.90;;;;;;5013113;28;20088;-73
2022/03/08 01:56:20;;;;;;;7.10;2.13;;;21.80;99.90;;;;;;5013159;28;20038;-73
2022/03/08 01:58:48;;;;;;;8.30;1.70;;;21.80;99.90;;;;;;5011025;28;20033;-71
2022/03/08 02:01:16;;;;;;;7.95;1.88;;;21.70;99.90;;;;;;5011589;28;20112;-70
2022/03/08 02:03:43;;;;;;;9.80;2.20;;;21.60;99.90;;;;;;5012850;28;20026;-71
2022/03/08 02:06:10;;;;;;;5.75;1.80;;;21.60;99.90;;;;;;5011704;28;20030;-71
2022/03/08 02:08:38;;;;;;;11.18;2.78;;;21.50;99.90;;;;;;5007704;28;20053;-71
2022/03/08 02:11:05;;;;;;;10.85;2.58;;;21.50;99.90;;;;;;5011767;28;20021;-71
2022/03/08 02:13:32;;;;;;;9.80;2.65;;;21.50;99.90;;;;;;5012314;28;20080;-73
2022/03/08 02:16:00;;;;;;;10.13;2.35;;;21.50;99.90;;;;;;5004039;28;20027;-71
2022/03/08 02:18:27;;;;;;;10.23;1.90;;;21.50;99.90;;;;;;5006553;28;20109;-72
2022/03/08 02:20:54;;;;;;;13.10;1.75;;;21.50;99.90;;;;;;5010455;28;20045;-73
2022/03/08 02:23:22;;;;;;;10.88;2.30;;;21.50;99.90;;;;;;5011957;28;20102;-75
2022/03/08 02:25:50;;;;;;;9.68;2.30;;;21.40;99.90;;;;;;5012058;28;20096;-73
2022/03/08 02:28:17;;;;;;;8.55;2.42;;;21.40;99.90;;;;;;5012516;28;20498;-71
2022/03/08 02:30:45;;;;;;;12.35;3.08;;;21.40;99.90;;;;;;5011867;28;20028;-69
2022/03/08 02:33:12;;;;;;;13.77;3.40;;;21.40;99.90;;;;;;5011316;28;20029;-73
2022/03/08 02:35:39;;;;;;;16.25;4.00;;;21.30;99.90;;;;;;5011094;28;20014;-73
2022/03/08 02:38:08;;;;;;;12.75;2.85;;;21.40;99.90;;;;;;5010984;28;20573;-72
2022/03/08 02:40:39;;;;;;;14.48;3.25;;;21.30;99.90;;;;;;5011830;28;20116;-72
2022/03/08 02:43:09;;;;;;;12.15;2.85;;;21.30;99.90;;;;;;5011708;28;20427;-70
2022/03/08 02:45:38;;;;;;;17.83;2.67;;;21.30;99.90;;;;;;5011649;28;20038;-74
2022/03/08 02:48:06;;;;;;;10.55;1.83;;;21.40;99.90;;;;;;5011943;28;20022;-75
2022/03/08 02:50:33;;;;;;;12.85;3.53;;;21.30;99.90;;;;;;5011642;28;20029;-71
2022/03/08 02:53:01;;;;;;;13.05;2.80;;;21.30;99.90;;;;;;5011739;28;20061;-74
2022/03/08 02:55:32;;;;;;;14.25;2.88;;;21.30;99.90;;;;;;5010092;28;20025;-72
2022/03/08 02:58:00;;;;;;;8.90;1.80;;;21.30;99.90;;;;;;5011488;28;20484;-71
2022/03/08 03:00:29;;;;;;;11.57;1.92;;;21.30;99.90;;;;;;5010977;28;20527;-72
2022/03/08 03:02:57;;;;;;;12.85;2.38;;;21.30;99.90;;;;;;5011802;28;20064;-76
2022/03/08 03:05:25;;;;;;;6.50;1.70;;;21.30;99.90;;;;;;5010894;28;20026;-73
2022/03/08 03:07:52;;;;;;;7.07;1.85;;;21.30;99.90;;;;;;5011732;28;20030;-72
2022/03/08 03:10:23;;;;;;;12.25;2.22;;;21.30;99.90;;;;;;5012876;28;20080;-72
2022/03/08 03:12:52;;;;;;;9.70;1.80;;;21.30;99.90;;;;;;5011188;28;20018;-70
2022/03/08 03:15:20;;;;;;;11.18;2.42;;;21.30;99.90;;;;;;5011319;28;20056;-73
2022/03/08 03:17:48;;;;;;;8.05;2.47;;;21.40;99.90;;;;;;5011739;28;20032;-73
2022/03/08 03:20:17;;;;;;;11.73;3.17;;;21.40;99.90;;;;;;5011391;28;20087;-75
2022/03/08 03:22:45;;;;;;;7.75;2.58;;;21.30;99.90;;;;;;5011255;28;20029;-73
2022/03/08 03:25:14;;;;;;;11.65;2.50;;;21.40;99.90;;;;;;5010848;28;20026;-73
2022/03/08 03:27:42;;;;;;;8.38;2.65;;;21.30;99.90;;;;;;5011414;28;20489;-72
2022/03/08 03:30:13;;;;;;;10.35;3.15;;;21.30;99.90;;;;;;5011284;28;20080;-72
2022/03/08 03:32:41;;;;;;;11.73;3.25;;;21.30;99.90;;;;;;5011824;28;20076;-70
2022/03/08 03:35:09;;;;;;;13.75;4.03;;;21.30;99.90;;;;;;5012065;28;20076;-72
2022/03/08 03:37:37;;;;;;;12.13;4.20;;;21.30;99.90;;;;;;5011569;28;20022;-72
2022/03/08 03:40:09;;;;;;;9.68;3.67;;;21.20;99.90;;;;;;5009952;28;20114;-73
2022/03/08 03:42:37;;;;;;;11.05;3.22;;;21.20;99.90;;;;;;5011170;28;20022;-73
2022/03/08 03:45:05;;;;;;;11.43;3.90;;;21.20;99.90;;;;;;5010687;28;20030;-72
2022/03/08 03:47:32;;;;;;;9.50;3.45;;;21.20;99.90;;;;;;5011060;28;20021;-71
2022/03/08 03:50:00;;;;;;;11.23;3.83;;;21.10;99.90;;;;;;5010799;28;20477;-74
2022/03/08 03:52:27;;;;;;;13.80;3.83;;;21.10;99.90;;;;;;5011027;28;20101;-73
2022/03/08 03:54:55;;;;;;;10.57;3.67;;;21.10;99.90;;;;;;5009827;28;20022;-71
2022/03/08 03:57:22;;;;;;;7.25;3.05;;;21.10;99.90;;;;;;5011174;28;20022;-73
2022/03/08 03:59:49;;;;;;;14.45;3.33;;;21.10;99.90;;;;;;5010836;28;20037;-72
2022/03/08 04:02:17;;;;;;;11.35;3.90;;;21.10;99.90;;;;;;5010908;28;20488;-74
2022/03/08 04:04:44;;;;;;;9.50;2.92;;;21.10;99.90;;;;;;5009973;28;20033;-72
2022/03/08 04:07:11;;;;;;;8.20;1.92;;;21.00;99.90;;;;;;5010589;28;20444;-72
2022/03/08 04:09:39;;;;;;;10.52;2.28;;;21.00;99.90;;;;;;5010464;28;20046;-72
2022/03/08 04:12:09;;;;;;;6.05;2.13;;;21.00;99.90;;;;;;5011254;28;20041;-72
2022/03/08 04:14:36;;;;;;;7.25;2.15;;;21.00;99.90;;;;;;5006627;28;20022;-70
2022/03/08 04:17:04;;;;;;;8.23;2.75;;;21.00;99.90;;;;;;5010188;28;20038;-70
2022/03/08 04:19:31;;;;;;;11.52;2.10;;;21.00;99.90;;;;;;5008530;28;20478;-74
2022/03/08 04:21:59;;;;;;;9.93;1.88;;;21.00;99.90;;;;;;5010251;28;20034;-72
2022/03/08 04:24:27;;;;;;;8.88;2.17;;;21.00;99.90;;;;;;5010776;28;20058;-72
2022/03/08 04:26:54;;;;;;;9.63;1.55;;;21.00;99.90;;;;;;5010514;28;20028;-73
2022/03/08 04:29:22;;;;;;;8.93;2.53;;;21.00;99.90;;;;;;5010848;28;20026;-72
2022/03/08 04:31:49;;;;;;;11.57;2.17;;;21.00;99.90;;;;;;5006156;28;20096;-73
2022/03/08 04:34:16;;;;;;;7.50;1.50;;;21.00;99.90;;;;;;5014767;28;20120;-72
2022/03/08 04:36:44;;;;;;;10.10;1.88;;;20.90;99.90;;;;;;5033028;28;20099;-70
2022/03/08 04:39:11;;;;;;;6.25;1.33;;;20.90;99.90;;;;;;5026783;28;20026;-70
2022/03/08 04:41:39;;;;;;;7.50;1.75;;;20.90;99.90;;;;;;5013561;28;20025;-71
2022/03/08 04:44:06;;;;;;;5.78;1.58;;;20.90;99.90;;;;;;5013597;28;20018;-69
2022/03/08 04:46:34;;;;;;;6.28;1.25;;;20.90;99.90;;;;;;5013549;28;20033;-73
2022/03/08 04:49:01;;;;;;;4.80;1.70;;;20.90;99.90;;;;;;5013400;28;20026;-71
2022/03/08 04:51:28;;;;;;;4.97;1.67;;;20.90;99.90;;;;;;5012889;28;20025;-76
2022/03/08 04:53:56;;;;;;;6.18;0.90;;;20.90;99.90;;;;;;5013194;28;20018;-69
2022/03/08 04:56:23;;;;;;;4.85;1.10;;;20.90;99.90;;;;;;5013224;28;20037;-73
2022/03/08 04:58:52;;;;;;;7.32;1.30;;;20.90;99.90;;;;;;5011926;28;20072;-72
2022/03/08 05:01:20;;;;;;;5.72;0.90;;;21.00;99.90;;;;;;5013161;28;20060;-73
2022/03/08 05:03:49;;;;;;;8.20;1.30;;;21.00;99.90;;;;;;5013228;28;20061;-71
2022/03/08 05:06:17;;;;;;;7.93;1.23;;;21.00;99.90;;;;;;5013165;28;20061;-70
2022/03/08 05:08:44;;;;;;;4.28;1.00;;;21.00;99.90;;;;;;5012507;28;20053;-73
2022/03/08 05:11:11;;;;;;;4.10;0.80;;;21.00;99.90;;;;;;5013051;28;20025;-71
2022/03/08 05:13:38;;;;;;;6.75;0.95;;;21.00;99.90;;;;;;5012598;28;20049;-78
2022/03/08 05:16:06;;;;;;;8.65;1.00;;;21.00;99.90;;;;;;5013059;28;20053;-73
2022/03/08 05:18:33;;;;;;;7.95;1.30;;;20.90;99.90;;;;;;5013415;28;20362;-74
2022/03/08 05:21:01;;;;;;;4.03;1.30;;;21.00;99.90;;;;;;5011506;28;20498;-75
2022/03/08 05:23:28;;;;;;;2.88;0.68;;;20.90;99.90;;;;;;5012649;28;20529;-72
2022/03/08 05:25:55;;;;;;;3.15;0.77;;;20.90;99.90;;;;;;5012986;28;20032;-77
2022/03/08 05:28:24;;;;;;;5.43;1.52;;;20.90;99.90;;;;;;5012781;28;20033;-75
2022/03/08 05:30:51;;;;;;;1.63;0.50;;;20.90;99.90;;;;;;5012574;28;20022;-79
2022/03/08 05:33:18;;;;;;;0.95;0.40;;;20.80;99.90;;;;;;5012460;28;20021;-72
2022/03/08 05:35:46;;;;;;;3.13;0.70;;;20.80;99.90;;;;;;5008795;28;20027;-69
2022/03/08 05:38:13;;;;;;;2.50;0.90;;;20.80;99.90;;;;;;4995466;28;20053;-74
2022/03/08 05:40:40;;;;;;;2.03;1.00;;;20.70;99.90;;;;;;5011379;28;20030;-73
2022/03/08 05:43:08;;;;;;;2.20;0.55;;;20.70;99.90;;;;;;5012658;28;20022;-68
2022/03/08 05:45:35;;;;;;;4.03;0.60;;;20.70;99.90;;;;;;5007965;28;20026;-73
2022/03/08 05:48:02;;;;;;;3.85;0.90;;;20.60;99.90;;;;;;4993062;28;20497;-74
2022/03/08 05:50:30;;;;;;;1.88;0.60;;;20.60;99.90;;;;;;5008927;28;20032;-73
2022/03/08 05:52:57;;;;;;;2.22;0.93;;;20.60;99.90;;;;;;5011794;28;20026;-74
2022/03/08 05:55:25;;;;;;;1.38;0.77;;;20.60;99.90;;;;;;5012693;28;20534;-74
2022/03/08 05:57:52;;;;;;;1.95;0.60;;;20.50;99.90;;;;;;5012770;28;20031;-71
2022/03/08 06:00:20;;;;;;;3.88;1.10;;;20.50;99.90;;;;;;5010788;28;20067;-72
2022/03/08 06:02:48;;;;;;;2.75;0.60;;;20.50;99.90;;;;;;5011570;28;20018;-75
2022/03/08 06:05:15;;;;;;;7.18;0.85;;;20.50;99.90;;;;;;5012647;28;20022;-71
2022/03/08 06:07:42;;;;;;;3.55;0.88;;;20.50;99.90;;;;;;5011789;28;20045;-72
2022/03/08 06:10:11;;;;;;;1.77;0.68;;;20.50;99.90;;;;;;5012050;28;20037;-72
2022/03/08 06:12:41;;;;;;;3.15;0.88;;;20.50;99.90;;;;;;5011815;28;20049;-75
2022/03/08 06:15:09;;;;;;;4.95;1.15;;;20.50;99.90;;;;;;5006047;28;20076;-76
2022/03/08 06:17:36;;;;;;;4.38;1.17;;;20.50;99.90;;;;;;5011188;28;20501;-75
2022/03/08 06:20:04;;;;;;;7.03;1.40;;;20.50;99.90;;;;;;5005027;28;20045;-76
2022/03/08 06:22:32;;;;;;;5.53;1.13;;;20.50;99.90;;;;;;5010659;28;20495;-75
2022/03/08 06:24:59;;;;;;;2.95;1.45;;;20.50;99.90;;;;;;5011692;28;20030;-75
2022/03/08 06:27:26;;;;;;;6.45;1.55;;;20.50;99.90;;;;;;5011990;28;20122;-76
2022/03/08 06:29:53;;;;;;;5.50;0.80;;;20.60;99.90;;;;;;5011633;28;20026;-80
2022/03/08 06:32:21;;;;;;;3.25;0.70;;;20.60;99.90;;;;;;5011801;28;20021;-79
2022/03/08 06:34:51;;;;;;;3.10;0.85;;;20.60;99.90;;;;;;5011349;28;20029;-77
2022/03/08 06:37:18;;;;;;;2.17;1.15;;;20.50;99.90;;;;;;5011937;28;20022;-79
2022/03/08 06:39:47;;;;;;;4.07;0.95;;;20.50;99.90;;;;;;5011428;28;20471;-74
2022/03/08 06:42:19;;;;;;;5.72;1.50;;;20.60;99.90;;;;;;5011803;28;20057;-76
2022/03/08 06:44:46;;;;;;;5.82;1.83;;;20.60;99.90;;;;;;5012009;28;20440;-74
2022/03/08 06:47:13;;;;;;;3.25;0.80;;;20.60;99.90;;;;;;5011591;28;20026;-71
2022/03/08 06:49:42;;;;;;;2.38;0.73;;;20.60;99.90;;;;;;5011939;28;20097;-69
2022/03/08 06:52:11;;;;;;;3.40;0.70;;;20.60;99.90;;;;;;5011133;28;20022;-72
2022/03/08 06:54:40;;;;;;;3.20;0.60;;;20.60;99.90;;;;;;5009615;28;20037;-75
2022/03/08 06:57:08;;;;;;;4.95;0.73;;;20.60;99.90;;;;;;5010780;28;20052;-78
2022/03/08 06:59:35;;;;;;;4.97;1.70;;;20.60;99.90;;;;;;5011257;28;20022;-75
2022/03/08 07:02:03;;;;;;;4.53;0.85;;;20.50;99.90;;;;;;5011111;28;20037;-77
2022/03/08 07:04:30;;;;;;;4.28;0.65;;;20.50;99.90;;;;;;5010427;28;20022;-79
2022/03/08 07:06:58;;;;;;;2.00;0.50;;;20.50;99.90;;;;;;5006876;28;20028;-76
2022/03/08 07:09:25;;;;;;;2.90;0.47;;;20.50;99.90;;;;;;5021366;28;20041;-79
2022/03/08 07:11:53;;;;;;;1.38;0.60;;;20.50;99.90;;;;;;5024902;28;20544;-79
2022/03/08 07:14:22;;;;;;;1.63;0.40;;;20.50;99.90;;;;;;5009911;28;20034;-76
2022/03/08 07:16:51;;;;;;;2.45;0.60;;;20.50;99.90;;;;;;5010068;28;20117;-70
2022/03/08 07:19:18;;;;;;;5.60;0.70;;;20.50;99.90;;;;;;5009519;28;20033;-81
2022/03/08 07:21:46;;;;;;;0.77;0.45;;;20.50;99.90;;;;;;5010836;28;20030;-73
2022/03/08 07:24:15;;;;;;;0.60;0.50;;;20.60;99.90;;;;;;5010866;28;20029;-78
2022/03/08 07:26:42;;;;;;;2.83;0.80;;;20.60;99.90;;;;;;5009984;28;20109;-71
2022/03/08 07:29:14;;;;;;;1.52;0.40;;;20.60;99.90;;;;;;5010654;28;20022;-78
2022/03/08 07:31:41;;;;;;;1.30;0.47;;;20.60;99.90;;;;;;5011117;28;20096;-70
2022/03/08 07:34:09;;;;;;;1.15;0.50;;;20.60;99.90;;;;;;5011163;28;20068;-75
2022/03/08 07:36:38;;;;;;;1.90;1.35;;;20.60;99.90;;;;;;5010686;28;20022;-75
2022/03/08 07:39:06;;;;;;;0.55;0.32;;;20.60;99.90;;;;;;5010475;28;20468;-74
2022/03/08 07:41:34;;;;;;;1.77;0.30;;;20.70;99.90;;;;;;5010477;28;20168;-68
2022/03/08 07:44:03;;;;;;;1.15;0.43;;;20.70;99.90;;;;;;5011149;28;20026;-74
2022/03/08 07:46:30;;;;;;;0.93;0.40;;;20.70;99.90;;;;;;5010892;28;20026;-73
2022/03/08 07:48:57;;;;;;;0.70;0.68;;;20.70;99.90;;;;;;5008678;28;20151;-70
2022/03/08 07:51:25;;;;;;;1.00;0.30;;;20.70;99.90;;;;;;5010206;28;20026;-71
2022/03/08 07:53:53;;;;;;;0.98;0.40;;;20.70;99.90;;;;;;4999229;28;20030;-73
2022/03/08 07:56:20;;;;;;;0.25;0.20;;;20.70;99.90;;;;;;5010817;28;20033;-70
2022/03/08 07:58:48;;;;;;;1.30;0.40;;;20.60;99.90;;;;;;5010688;28;20496;-69
2022/03/08 08:01:15;;;;;;;1.73;0.40;;;20.60;99.90;;;;;;5009673;28;20033;-72
2022/03/08 08:03:42;;;;;;;2.17;0.30;;;20.60;99.90;;;;;;5010470;28;20026;-75
2022/03/08 08:06:09;;;;;;;1.92;0.40;;;20.60;99.90;;;;;;5009001;28;20521;-72
2022/03/08 08:08:37;;;;;;;1.27;0.93;;;20.60;99.90;;;;;;5011777;28;20073;-75
2022/03/08 08:11:04;;;;;;;0.55;0.30;;;20.60;99.90;;;;;;5014594;28;20355;-77
2022/03/08 08:13:32;;;;;;;1.27;0.43;;;20.50;99.90;;;;;;5014090;28;20033;-72
2022/03/08 08:15:59;;;;;;;1.60;0.30;;;20.50;99.90;;;;;;5006385;28;20076;-71
2022/03/08 08:18:26;;;;;;;1.90;0.57;;;20.50;99.90;;;;;;4994696;28;20031;-73
2022/03/08 08:20:55;;;;;;;2.13;0.40;;;20.50;99.90;;;;;;5014187;28;20546;-69
2022/03/08 08:23:25;;;;;;;0.60;0.35;;;20.50;99.90;;;;;;5014992;28;20021;-73
2022/03/08 08:25:52;;;;;;;2.28;0.30;;;20.50;99.90;;;;;;5013965;28;20076;-69
2022/03/08 08:28:19;;;;;;;1.45;0.70;;;20.50;99.90;;;;;;5014404;28;20018;-68
2022/03/08 08:30:48;;;;;;;1.52;0.40;;;20.50;99.90;;;;;;5013500;28;20570;-72
2022/03/08 08:33:15;;;;;;;0.73;0.40;;;20.60;99.90;;;;;;5013984;28;20060;-78
2022/03/08 08:35:43;;;;;;;2.03;0.50;;;20.60;99.90;;;;;;5014424;28;20084;-69
2022/03/08 08:38:10;;;;;;;2.63;0.47;;;20.60;99.90;;;;;;5016113;28;20026;-72
2022/03/08 08:40:38;;;;;;;1.08;0.50;;;20.50;99.90;;;;;;5013236;28;20387;-72
2022/03/08 08:43:07;;;;;;;1.35;0.30;;;20.60;99.90;;;;;;5013703;28;20033;-72
2022/03/08 08:45:36;;;;;;;1.88;0.30;;;20.60;99.90;;;;;;5013456;28;20032;-73
2022/03/08 08:48:10;;;;;;;0.50;0.25;;;20.60;99.90;;;;;;5013379;28;20021;-73
2022/03/08 08:50:37;;;;;;;1.50;0.40;;;20.60;99.90;;;;;;5013045;28;20482;-73
2022/03/08 08:53:05;;;;;;;0.88;0.30;;;20.60;99.90;;;;;;5013590;28;20109;-73
2022/03/08 08:55:37;;;;;;;0.88;0.30;;;20.60;99.90;;;;;;5013165;28;20026;-70
2022/03/08 08:58:05;;;;;;;1.80;0.50;;;20.60;99.90;;;;;;5000269;28;20092;-72
2022/03/08 09:00:34;;;;;;;1.73;0.63;;;20.60;99.90;;;;;;5010688;28;20460;-72
2022/03/08 09:03:01;;;;;;;0.88;0.30;;;20.60;99.90;;;;;;5013316;28;20026;-69
2022/03/08 09:05:29;;;;;;;1.02;0.40;;;20.60;99.90;;;;;;5013484;28;20026;-73
2022/03/08 09:07:56;;;;;;;1.50;0.45;;;20.50;99.90;;;;;;5013596;28;20049;-70
2022/03/08 09:10:23;;;;;;;0.90;0.40;;;20.50;99.90;;;;;;5013246;28;20108;-72
2022/03/08 09:12:54;;;;;;;1.25;0.40;;;20.50;99.90;;;;;;5012826;28;20125;-71
2022/03/08 09:15:22;;;;;;;0.80;0.40;;;20.50;99.90;;;;;;5012226;28;20053;-72
2022/03/08 09:17:50;;;;;;;1.38;0.55;;;20.50;99.90;;;;;;5012775;28;20076;-69
2022/03/08 09:20:17;;;;;;;1.27;0.50;;;20.40;99.90;;;;;;5012365;28;20038;-70
2022/03/08 09:22:44;;;;;;;0.80;0.40;;;20.40;99.90;;;;;;5012655;28;20068;-71
2022/03/08 09:25:12;;;;;;;0.95;0.45;;;20.40;99.90;;;;;;5013052;28;20077;-74
2022/03/08 09:27:39;;;;;;;0.52;0.40;;;20.30;99.90;;;;;;5013028;28;20386;-71
2022/03/08 09:30:07;;;;;;;1.20;0.38;;;20.30;99.90;;;;;;5012309;28;20049;-68
2022/03/08 09:32:34;;;;;;;1.75;0.30;;;20.30;99.90;;;;;;5008291;28;20029;-69
2022/03/08 09:35:02;;;;;;;1.30;0.30;;;20.30;99.90;;;;;;5012702;28;20458;-72
2022/03/08 09:37:29;;;;;;;1.58;0.30;;;20.20;99.90;;;;;;5012254;28;20064;-68
2022/03/08 09:39:57;;;;;;;2.22;0.40;;;20.30;99.90;;;;;;5011527;28;20028;-74
2022/03/08 09:42:25;;;;;;;1.70;0.50;;;20.20;99.90;;;;;;5013219;28;20486;-74
2022/03/08 09:44:52;;;;;;;0.90;0.20;;;20.20;99.90;;;;;;5013760;28;20030;-72
2022/03/08 09:47:22;;;;;;;0.35;0.20;;;20.20;99.90;;;;;;5013640;28;20021;-76
2022/03/08 09:49:50;;;;;;;1.77;0.57;;;20.20;99.90;;;;;;5012546;28;20053;-70
2022/03/08 09:52:20;;;;;;;2.70;0.50;;;20.20;99.90;;;;;;5012699;28;20108;-71
2022/03/08 09:54:48;;;;;;;3.47;0.60;;;20.20;99.90;;;;;;5012438;28;20022;-73
2022/03/08 09:57:22;;;;;;;1.52;0.50;;;20.20;99.90;;;;;;5010704;28;20030;-72
2022/03/08 09:59:49;;;;;;;3.72;0.60;;;20.10;99.90;;;;;;4994639;28;20401;-72
2022/03/08 10:02:17;;;;;;;3.75;0.82;;;20.20;99.90;;;;;;5013211;28;20026;-72
2022/03/08 10:04:44;;;;;;;5.97;1.45;;;20.10;99.90;;;;;;5013171;28;20026;-69
2022/03/08 10:07:14;;;;;;;3.95;0.60;;;20.10;99.90;;;;;;5012266;28;20032;-73
2022/03/08 10:09:58;;;;;;;4.40;0.65;;;20.10;99.90;;;;;;5012181;28;20041;-69
2022/03/08 10:12:27;;;;;;;2.15;0.68;;;20.10;99.90;;;;;;5012032;28;20034;-73
2022/03/08 10:14:55;;;;;;;4.72;0.65;;;20.10;99.90;;;;;;5012572;28;20022;-75
2022/03/08 10:17:41;;;;;;;2.47;0.52;;;20.10;99.90;;;;;;5012255;28;20022;-68
2022/03/08 10:20:12;;;;;;;5.05;0.90;;;20.00;99.90;;;;;;5011958;28;20029;-70
2022/03/08 10:22:44;;;;;;;4.47;0.80;;;19.90;99.90;;;;;;5011919;28;20486;-70
2022/03/08 10:25:19;;;;;;;4.38;0.82;;;19.90;99.90;;;;;;5012493;28;20065;-70
2022/03/08 10:27:55;;;;;;;6.45;1.05;;;19.90;99.90;;;;;;5012650;28;20092;-71
2022/03/08 10:30:46;;;;;;;6.78;1.70;;;19.80;99.90;;;;;;5011475;28;20022;-72
2022/03/08 10:33:19;;;;;;;6.85;0.80;;;19.70;99.90;;;;;;5012414;28;20022;-71
2022/03/08 10:35:50;;;;;;;9.63;1.75;;;19.60;99.90;;;;;;5010941;28;20041;-74
2022/03/08 10:38:17;;;;;;;10.23;1.85;;;19.60;99.90;;;;;;5012804;28;20021;-71
2022/03/08 10:40:45;;;;;;;4.70;1.00;;;19.50;99.90;;;;;;5011612;28;20046;-74
2022/03/08 10:43:16;;;;;;;6.05;1.45;;;19.50;99.90;;;;;;5010902;28;20025;-71
2022/03/08 10:45:53;;;;;;;5.95;1.52;;;19.40;99.90;;;;;;5011732;28;20490;-71
2022/03/08 10:48:25;;;;;;;6.22;0.90;;;19.40;99.90;;;;;;5008609;28;20101;-74
2022/03/08 10:50:52;;;;;;;;;;;19.40;99.90;;;;;;4992670;28;20035;-73
2022/03/08 10:53:25;;;;;;;5.45;1.27;;;19.30;99.90;;;;;;4992543;28;19905;-70
2022/03/08 10:55:53;;;;;;;6.80;1.20;;;19.30;99.90;;;;;;5011878;28;20117;-72
2022/03/08 10:58:21;;;;;;;6.38;1.17;;;19.30;99.90;;;;;;5011800;28;20022;-74
2022/03/08 11:00:53;;;;;;;4.05;0.90;;;19.30;99.90;;;;;;5011854;28;20711;-72
2022/03/08 11:03:23;;;;;;;5.82;0.90;;;19.30;99.90;;;;;;5012389;28;20481;-76
2022/03/08 11:06:05;;;;;;;4.13;0.82;;;19.30;99.90;;;;;;5011725;28;20030;-72
2022/03/08 11:08:33;;;;;;;4.95;1.17;;;19.30;99.90;;;;;;5011232;28;20049;-72
2022/03/08 11:11:00;;;;;;;10.30;1.27;;;19.30;99.90;;;;;;5011805;28;20030;-71
2022/03/08 11:13:31;;;;;;;8.48;1.35;;;19.30;99.90;;;;;;5012350;28;20017;-75
2022/03/08 11:15:58;;;;;;;3.65;0.93;;;19.30;99.90;;;;;;5004650;28;20056;-73
2022/03/08 11:18:27;;;;;;;5.10;0.98;;;19.30;99.90;;;;;;5004341;28;20048;-71
2022/03/08 11:20:58;;;;;;;3.92;0.98;;;19.30;99.90;;;;;;4992235;28;20458;-71
2022/03/08 11:23:26;;;;;;;5.22;1.10;;;19.30;99.90;;;;;;4992283;28;20054;-69
2022/03/08 11:25:54;;;;;;;3.25;0.60;;;19.20;99.90;;;;;;4992228;28;20041;-70
2022/03/08 11:28:22;;;;;;;3.42;0.70;;;19.30;99.90;;;;;;4990984;28;20105;-72
2022/03/08 11:30:55;;;;;;;4.45;1.00;;;19.20;99.90;;;;;;5010340;28;20030;-72
2022/03/08 11:33:47;;;;;;;1.27;0.50;;;19.20;99.90;;;;;;5011231;28;20050;-74
2022/03/08 11:36:38;;;;;;;2.03;0.40;;;19.30;99.90;;;;;;5010875;28;20054;-72
2022/03/08 11:39:18;;;;;;;2.92;0.47;;;19.20;99.90;;;;;;5010902;28;20022;-72
2022/03/08 11:41:53;;;;;;;1.42;0.50;;;19.20;99.90;;;;;;5020082;28;20485;-73
2022/03/08 11:44:38;;;;;;;2.35;0.50;;;19.30;99.90;;;;;;5024004;28;20017;-73
2022/03/08 11:47:15;;;;;;;1.95;0.50;;;19.20;99.90;;;;;;5037435;28;20517;-69
2022/03/08 11:49:53;;;;;;;1.42;0.45;;;19.20;99.90;;;;;;5014964;28;20025;-71
2022/03/08 11:52:30;;;;;;;4.50;0.80;;;19.30;99.90;;;;;;5037379;28;20477;-71
2022/03/08 11:55:23;;;;;;;2.80;0.40;;;19.20;99.90;;;;;;5022820;28;20112;-74
2022/03/08 11:57:56;;;;;;;1.88;0.50;;;19.30;99.90;;;;;;4997797;28;20028;-72
2022/03/08 12:00:32;;;;;;;3.30;0.63;;;19.30;99.90;;;;;;5013591;28;20034;-70
2022/03/08 12:03:03;;;;;;;2.72;0.40;;;19.30;99.90;;;;;;5017761;28;20022;-75
2022/03/08 12:05:40;;;;;;;5.05;0.60;;;19.30;99.90;;;;;;5006871;28;20882;-72
2022/03/08 12:08:26;;;;;;;2.58;0.60;;;19.30;99.90;;;;;;5037480;28;20120;-75
2022/03/08 12:11:03;;;;;;;3.63;0.63;;;19.30;99.90;;;;;;5027089;28;20485;-70
2022/03/08 12:13:35;;;;;;;3.08;0.77;;;19.30;99.90;;;;;;5026959;28;20033;-70
2022/03/08 12:16:08;;;;;;;2.15;0.70;;;19.30;99.90;;;;;;5027277;28;20018;-71
2022/03/08 12:18:50;;;;;;;1.55;0.50;;;19.30;99.90;;;;;;5022116;28;20021;-73
2022/03/08 12:21:17;;;;;;;3.05;0.60;;;19.20;99.90;;;;;;5011926;28;20116;-74
2022/03/08 12:23:48;;;;;;;5.25;0.90;;;19.20;99.90;;;;;;5017193;28;20018;-73
2022/03/08 12:26:39;;;;;;;5.25;0.93;;;19.20;99.90;;;;;;5017464;28;20029;-69
2022/03/08 12:29:19;;;;;;;2.53;0.43;;;19.20;99.90;;;;;;5017213;28;20018;-77
2022/03/08 12:32:01;;;;;;;1.95;0.43;;;19.20;99.90;;;;;;5017461;28;20424;-76
2022/03/08 12:34:40;;;;;;;;;;;19.20;99.90;;;;;;5018052;28;20022;-72
2022/03/08 12:37:11;;;;;;;3.65;0.60;;;19.20;99.90;;;;;;5017805;28;19951;-74
2022/03/08 12:39:51;;;;;;;1.40;0.50;;;19.20;99.90;;;;;;5017735;28;20401;-73
2022/03/08 12:42:19;;;;;;;3.78;0.70;;;19.30;99.90;;;;;;5018026;28;20061;-69
2022/03/08 12:44:55;;;;;;;1.90;0.43;;;19.30;99.90;;;;;;5017855;28;20108;-73
2022/03/08 12:47:23;;;;;;;5.22;1.90;;;19.30;99.90;;;;;;5017451;28;20045;-70
2022/03/08 12:49:52;;;;;;;4.70;0.57;;;19.30;99.90;;;;;;5017748;28;20026;-77
2022/03/08 12:52:20;;;;;;;0.85;0.40;;;19.30;99.90;;;;;;5010046;28;20541;-70
2022/03/08 12:54:48;;;;;;;2.25;1.15;;;19.30;99.90;;;;;;5007829;28;20457;-71